Time;durP1;ratioP1;P1;durP2;ratioP2;P2;SDS_P1;SDS_P2;PMS_P1;PMS_P2;Temp;Humidity;BMP_temperature;BMP_pressure;BME280_temperature;BME280_humidity;BME280_pressure;Samples;Min_cycle;Max_cycle;Signal;HPM_P1;HPM_P2
2022/04/08 00:00:29;;;;;;;2.80;1.55;;;13.70;90.00;;;;;;5087615;27;20069;-62
2022/04/08 00:02:54;;;;;;;3.58;1.27;;;13.70;90.10;;;;;;5123102;27;20031;-60
2022/04/08 00:05:20;;;;;;;3.65;1.30;;;13.70;90.40;;;;;;5122349;27;20015;-59
2022/04/08 00:07:45;;;;;;;1.92;1.40;;;13.70;90.10;;;;;;5123792;27;20039;-60
2022/04/08 00:10:13;;;;;;;4.00;1.33;;;13.70;90.10;;;;;;5090697;27;20049;-60
2022/04/08 00:12:38;;;;;;;2.33;1.50;;;13.70;90.10;;;;;;5105897;27;20051;-59
2022/04/08 00:15:04;;;;;;;2.95;1.20;;;13.70;90.10;;;;;;5087480;27;20082;-60
2022/04/08 00:17:30;;;;;;;2.63;1.50;;;13.70;90.50;;;;;;5100993;27;20410;-59
2022/04/08 00:19:55;;;;;;;2.17;1.10;;;13.70;90.20;;;;;;5122557;27;20051;-61
2022/04/08 00:22:23;;;;;;;1.58;0.90;;;13.70;90.20;;;;;;5121933;27;20102;-59
2022/04/08 00:24:49;;;;;;;2.30;1.40;;;13.70;90.20;;;;;;5122751;27;20019;-60
2022/04/08 00:27:15;;;;;;;2.67;1.00;;;13.60;90.20;;;;;;5123327;27;20021;-59
2022/04/08 00:29:40;;;;;;;2.88;0.90;;;13.60;90.20;;;;;;5103887;27;20034;-61
2022/04/08 00:32:06;;;;;;;5.15;1.15;;;13.60;90.30;;;;;;5104408;28;20134;-60
2022/04/08 00:34:31;;;;;;;2.78;1.20;;;13.60;90.30;;;;;;5104558;28;20031;-60
2022/04/08 00:36:57;;;;;;;1.30;0.90;;;13.60;90.40;;;;;;5101236;28;20535;-61
2022/04/08 00:39:22;;;;;;;2.65;1.00;;;13.60;90.40;;;;;;5085406;28;20051;-59
2022/04/08 00:41:48;;;;;;;1.52;0.82;;;13.60;90.50;;;;;;5083049;27;20591;-58
2022/04/08 00:44:14;;;;;;;2.25;1.15;;;13.60;90.50;;;;;;5103375;28;20247;-61
2022/04/08 00:46:39;;;;;;;1.60;0.88;;;13.50;90.60;;;;;;5101049;28;20104;-60
2022/04/08 00:49:05;;;;;;;9.18;1.52;;;13.50;90.70;;;;;;5104040;28;20020;-59
2022/04/08 00:51:32;;;;;;;18.92;1.50;;;13.50;90.70;;;;;;5103653;27;20020;-61
2022/04/08 00:53:58;;;;;;;1.67;0.80;;;13.50;91.10;;;;;;5087003;28;20042;-60
2022/04/08 00:56:23;;;;;;;1.23;0.90;;;13.50;91.10;;;;;;5102390;28;20027;-60
2022/04/08 00:58:49;;;;;;;3.47;2.15;;;13.50;90.90;;;;;;5070083;28;20023;-59
2022/04/08 01:01:14;;;;;;;3.42;2.20;;;13.50;91.00;;;;;;5084706;27;20438;-59
2022/04/08 01:03:40;;;;;;;2.22;1.50;;;13.50;90.90;;;;;;5085240;28;20755;-58
2022/04/08 01:06:06;;;;;;;1.50;1.30;;;13.50;90.90;;;;;;5102336;28;20081;-58
2022/04/08 01:08:34;;;;;;;4.07;1.35;;;13.50;91.10;;;;;;5103108;27;20223;-58
2022/04/08 01:11:00;;;;;;;3.22;1.35;;;13.50;90.80;;;;;;5084395;28;20108;-59
2022/04/08 01:13:25;;;;;;;1.75;1.20;;;13.50;90.70;;;;;;5067508;28;20039;-59
2022/04/08 01:15:51;;;;;;;2.03;1.25;;;13.50;90.70;;;;;;5102913;28;20035;-59
2022/04/08 01:18:16;;;;;;;2.15;1.00;;;13.50;90.70;;;;;;5085128;28;20030;-58
2022/04/08 01:20:42;;;;;;;2.20;1.10;;;13.50;90.60;;;;;;5084128;28;20466;-60
2022/04/08 01:23:07;;;;;;;2.45;1.10;;;13.50;90.60;;;;;;5081339;28;20059;-59
2022/04/08 01:25:33;;;;;;;1.92;1.30;;;13.40;90.60;;;;;;5078333;28;20126;-61
2022/04/08 01:27:58;;;;;;;2.15;1.10;;;13.50;90.50;;;;;;5096776;28;20132;-60
2022/04/08 01:30:24;;;;;;;2.15;1.02;;;13.40;90.50;;;;;;5107095;27;20051;-60
2022/04/08 01:32:49;;;;;;;4.88;1.00;;;13.50;90.50;;;;;;5094427;27;20691;-60
2022/04/08 01:35:15;;;;;;;1.50;0.70;;;13.40;90.50;;;;;;5114055;27;20035;-60
2022/04/08 01:37:40;;;;;;;2.42;1.15;;;13.40;90.60;;;;;;5113550;27;20499;-60
2022/04/08 01:40:06;;;;;;;2.25;1.38;;;13.30;90.50;;;;;;5090037;27;20386;-59
2022/04/08 01:42:32;;;;;;;2.28;1.20;;;13.30;90.50;;;;;;5108379;27;20032;-60
2022/04/08 01:44:58;;;;;;;3.13;1.25;;;13.30;90.50;;;;;;5084073;27;20027;-59
2022/04/08 01:47:23;;;;;;;4.20;1.20;;;13.30;90.40;;;;;;5106464;27;20038;-59
2022/04/08 01:49:49;;;;;;;2.00;0.93;;;13.30;90.40;;;;;;5095979;27;20066;-59
2022/04/08 01:52:14;;;;;;;4.10;1.38;;;13.30;90.30;;;;;;5092918;27;20082;-59
2022/04/08 01:54:40;;;;;;;2.25;1.00;;;13.30;90.30;;;;;;5093535;28;20035;-58
2022/04/08 01:57:06;;;;;;;3.78;1.20;;;13.20;90.30;;;;;;5089576;28;20027;-59
2022/04/08 01:59:31;;;;;;;1.20;0.90;;;13.20;90.30;;;;;;5117899;27;20318;-59
2022/04/08 02:01:59;;;;;;;1.80;1.08;;;13.20;90.30;;;;;;5074945;27;20023;-58
2022/04/08 02:04:25;;;;;;;1.90;1.05;;;13.20;90.30;;;;;;5096341;27;20411;-59
2022/04/08 02:06:51;;;;;;;2.25;1.13;;;13.10;90.30;;;;;;5095944;27;20435;-59
2022/04/08 02:09:18;;;;;;;1.92;1.02;;;13.10;90.30;;;;;;5104596;27;20114;-59
2022/04/08 02:11:44;;;;;;;3.33;1.10;;;13.10;90.30;;;;;;5100698;27;20031;-60
2022/04/08 02:14:09;;;;;;;3.13;1.40;;;13.10;90.20;;;;;;5091950;27;20099;-60
2022/04/08 02:16:35;;;;;;;2.88;1.40;;;13.10;90.20;;;;;;5105892;27;20028;-60
2022/04/08 02:19:01;;;;;;;2.72;1.33;;;13.10;90.20;;;;;;5104160;27;20035;-60
2022/04/08 02:21:27;;;;;;;3.33;1.30;;;13.10;90.20;;;;;;5114588;27;20028;-59
2022/04/08 02:23:52;;;;;;;4.68;1.13;;;13.10;90.20;;;;;;5119660;27;20031;-61
2022/04/08 02:26:18;;;;;;;3.22;1.08;;;13.00;90.10;;;;;;5093694;27;20031;-61
2022/04/08 02:28:44;;;;;;;3.08;1.40;;;13.00;90.10;;;;;;5098587;27;20110;-59
2022/04/08 02:31:09;;;;;;;2.65;1.30;;;13.00;90.10;;;;;;5105646;27;20043;-58
2022/04/08 02:33:35;;;;;;;2.30;1.13;;;13.00;90.10;;;;;;5103269;27;20131;-58
2022/04/08 02:36:00;;;;;;;2.45;1.10;;;13.00;90.20;;;;;;5102111;27;20039;-58
2022/04/08 02:38:26;;;;;;;3.17;1.30;;;13.20;90.20;;;;;;5080714;27;20072;-59
2022/04/08 02:40:52;;;;;;;3.13;1.17;;;12.90;90.10;;;;;;5092146;27;20019;-58
2022/04/08 02:43:17;;;;;;;3.08;0.95;;;13.00;90.20;;;;;;5110966;27;20134;-61
2022/04/08 02:45:43;;;;;;;4.00;1.48;;;12.90;90.10;;;;;;5082964;28;20086;-59
2022/04/08 02:48:08;;;;;;;3.70;1.42;;;12.90;90.20;;;;;;5088772;27;20505;-58
2022/04/08 02:50:34;;;;;;;8.30;1.63;;;12.90;90.20;;;;;;5107493;27;20036;-59
2022/04/08 02:52:59;;;;;;;2.95;1.20;;;12.90;90.20;;;;;;5093847;27;20020;-62
2022/04/08 02:55:25;;;;;;;6.15;1.50;;;12.90;90.20;;;;;;5107404;27;20087;-61
2022/04/08 02:57:50;;;;;;;4.55;1.58;;;12.90;90.20;;;;;;5076826;27;20031;-60
2022/04/08 03:00:17;;;;;;;4.43;1.30;;;12.80;90.10;;;;;;5095096;27;20300;-59
2022/04/08 03:02:46;;;;;;;2.03;1.00;;;12.80;90.10;;;;;;5089051;27;20160;-59
2022/04/08 03:05:12;;;;;;;3.15;1.33;;;12.80;90.10;;;;;;5083127;27;20023;-59
2022/04/08 03:07:37;;;;;;;2.60;1.15;;;12.80;90.10;;;;;;5087748;28;20027;-59
2022/04/08 03:10:04;;;;;;;2.97;1.00;;;12.80;90.10;;;;;;5085251;28;20028;-59
2022/04/08 03:12:30;;;;;;;3.35;1.25;;;12.80;90.20;;;;;;5076460;28;20032;-60
2022/04/08 03:14:56;;;;;;;4.65;1.52;;;12.80;90.20;;;;;;5077376;27;20031;-61
2022/04/08 03:17:22;;;;;;;3.33;1.48;;;12.80;90.20;;;;;;5107996;27;20026;-60
2022/04/08 03:19:48;;;;;;;3.47;1.33;;;12.70;90.20;;;;;;5112113;28;20031;-60
2022/04/08 03:22:13;;;;;;;3.53;1.17;;;12.70;90.20;;;;;;5094490;27;20092;-59
2022/04/08 03:24:39;;;;;;;1.58;0.70;;;12.70;90.20;;;;;;5095501;28;20034;-60
2022/04/08 03:27:04;;;;;;;2.55;1.10;;;12.70;90.20;;;;;;5101762;28;20526;-59
2022/04/08 03:29:30;;;;;;;2.17;1.10;;;12.70;90.20;;;;;;5099444;28;20047;-59
2022/04/08 03:31:55;;;;;;;2.58;1.05;;;12.70;90.10;;;;;;5112629;28;20026;-58
2022/04/08 03:34:21;;;;;;;2.08;0.70;;;12.70;90.20;;;;;;5116005;27;20027;-60
2022/04/08 03:36:47;;;;;;;2.70;1.00;;;12.70;90.20;;;;;;5101341;28;20080;-59
2022/04/08 03:39:13;;;;;;;1.60;1.00;;;12.70;90.10;;;;;;5116952;27;20110;-60
2022/04/08 03:41:39;;;;;;;1.95;0.90;;;12.70;90.10;;;;;;5092804;28;20330;-60
2022/04/08 03:44:05;;;;;;;2.47;1.00;;;12.70;90.10;;;;;;5095622;28;20035;-60
2022/04/08 03:46:30;;;;;;;3.85;1.10;;;12.70;90.10;;;;;;5114059;27;20038;-59
2022/04/08 03:48:56;;;;;;;2.00;0.88;;;12.70;90.20;;;;;;5092773;28;20041;-59
2022/04/08 03:51:21;;;;;;;3.00;0.85;;;12.70;90.20;;;;;;5117179;27;20331;-59
2022/04/08 03:53:47;;;;;;;3.85;1.33;;;12.70;90.10;;;;;;5121311;27;20027;-59
2022/04/08 03:56:12;;;;;;;3.17;1.15;;;12.60;90.20;;;;;;5113474;28;20035;-59
2022/04/08 03:58:38;;;;;;;6.47;1.40;;;12.60;90.20;;;;;;5091899;27;20443;-60
2022/04/08 04:01:03;;;;;;;5.15;1.40;;;12.70;90.20;;;;;;5112370;27;20343;-59
2022/04/08 04:03:29;;;;;;;12.45;1.33;;;12.60;90.20;;;;;;5117329;27;20484;-59
2022/04/08 04:05:54;;;;;;;7.93;1.50;;;12.60;90.20;;;;;;5111228;27;20428;-59
2022/04/08 04:08:20;;;;;;;9.23;1.50;;;12.60;90.20;;;;;;5111117;27;20255;-58
2022/04/08 04:10:46;;;;;;;6.05;1.27;;;12.60;90.20;;;;;;5116690;27;20023;-59
2022/04/08 04:13:11;;;;;;;14.02;2.05;;;12.60;90.20;;;;;;5090387;28;20031;-59
2022/04/08 04:15:37;;;;;;;16.83;2.08;;;12.60;90.20;;;;;;5111578;28;20666;-59
2022/04/08 04:18:03;;;;;;;16.95;1.77;;;12.60;90.20;;;;;;5099975;27;20134;-58
2022/04/08 04:20:29;;;;;;;10.55;2.30;;;12.60;90.20;;;;;;5115582;27;20038;-60
2022/04/08 04:22:54;;;;;;;13.45;2.22;;;12.60;90.10;;;;;;5097387;27;20035;-58
2022/04/08 04:25:20;;;;;;;9.35;1.80;;;12.60;90.20;;;;;;5122090;27;20483;-59
2022/04/08 04:27:45;;;;;;;24.88;3.72;;;12.50;90.10;;;;;;5104461;27;20081;-59
2022/04/08 04:30:11;;;;;;;26.83;4.43;;;12.50;90.10;;;;;;5110686;27;20040;-59
2022/04/08 04:32:37;;;;;;;38.67;4.95;;;12.60;90.10;;;;;;5050354;28;20044;-59
2022/04/08 04:35:06;;;;;;;37.03;5.00;;;12.60;90.10;;;;;;5095705;28;20043;-60
2022/04/08 04:37:33;;;;;;;210.85;16.52;;;12.60;90.00;;;;;;5094324;28;20035;-60
2022/04/08 04:40:00;;;;;;;107.38;9.68;;;12.60;90.00;;;;;;5089913;28;20016;-59
2022/04/08 04:42:27;;;;;;;427.17;35.63;;;12.60;90.00;;;;;;5099170;28;20421;-60
2022/04/08 04:44:53;;;;;;;216.82;21.05;;;12.60;90.00;;;;;;5093392;28;20708;-60
2022/04/08 04:47:19;;;;;;;165.68;13.05;;;12.60;90.00;;;;;;5091617;28;20019;-61
2022/04/08 04:49:44;;;;;;;138.55;11.55;;;12.60;90.00;;;;;;5094455;28;20019;-60
2022/04/08 04:52:10;;;;;;;124.30;11.93;;;12.60;89.90;;;;;;5097285;28;20068;-60
2022/04/08 04:54:35;;;;;;;118.07;10.55;;;12.60;89.90;;;;;;5091569;28;20032;-59
2022/04/08 04:57:01;;;;;;;96.97;9.20;;;12.60;90.00;;;;;;5088861;28;20441;-59
2022/04/08 04:59:26;;;;;;;102.95;9.75;;;12.50;90.00;;;;;;5097686;28;20382;-61
2022/04/08 05:01:53;;;;;;;113.57;9.43;;;12.60;90.00;;;;;;5078411;28;20019;-58
2022/04/08 05:04:19;;;;;;;79.05;8.27;;;12.60;90.00;;;;;;5095035;28;20085;-59
2022/04/08 05:06:44;;;;;;;76.55;7.63;;;12.50;90.00;;;;;;5085631;28;20036;-59
2022/04/08 05:09:10;;;;;;;88.28;10.13;;;12.50;90.10;;;;;;5092957;28;20125;-59
2022/04/08 05:11:36;;;;;;;66.88;8.23;;;12.50;90.10;;;;;;5094257;28;20391;-59
2022/04/08 05:14:01;;;;;;;71.82;8.73;;;12.50;90.10;;;;;;5073204;28;20574;-58
2022/04/08 05:16:27;;;;;;;69.78;8.10;;;12.60;90.10;;;;;;5074334;28;20255;-58
2022/04/08 05:18:53;;;;;;;53.67;6.63;;;12.50;90.20;;;;;;5079114;27;20027;-60
2022/04/08 05:21:18;;;;;;;50.03;5.15;;;12.50;90.20;;;;;;5093181;28;20033;-61
2022/04/08 05:23:44;;;;;;;40.42;5.55;;;12.50;90.20;;;;;;5057611;28;20027;-61
2022/04/08 05:26:09;;;;;;;52.45;5.60;;;12.50;90.30;;;;;;5088753;28;20023;-60
2022/04/08 05:28:35;;;;;;;44.85;5.70;;;12.50;90.20;;;;;;5096092;28;20320;-60
2022/04/08 05:31:00;;;;;;;52.30;6.30;;;12.50;90.20;;;;;;5102083;27;20462;-59
2022/04/08 05:33:26;;;;;;;42.03;5.10;;;12.60;90.20;;;;;;5102489;27;20036;-59
2022/04/08 05:35:52;;;;;;;51.45;5.53;;;12.60;90.20;;;;;;5103682;27;20071;-59
2022/04/08 05:38:18;;;;;;;37.40;4.53;;;12.60;90.30;;;;;;5102529;27;20041;-60
2022/04/08 05:40:43;;;;;;;46.05;5.22;;;12.60;90.40;;;;;;5112345;27;20027;-60
2022/04/08 05:43:09;;;;;;;46.13;5.22;;;12.60;90.40;;;;;;5096537;28;20491;-59
2022/04/08 05:45:34;;;;;;;37.35;4.47;;;12.60;90.40;;;;;;5093473;27;20035;-60
2022/04/08 05:48:04;;;;;;;36.00;4.10;;;12.50;90.40;;;;;;5117107;27;20092;-61
2022/04/08 05:50:30;;;;;;;31.15;3.80;;;12.50;90.60;;;;;;5102522;27;20027;-60
2022/04/08 05:52:55;;;;;;;35.63;4.50;;;12.50;90.60;;;;;;5118600;27;20241;-59
2022/04/08 05:55:21;;;;;;;34.45;4.22;;;12.50;90.70;;;;;;5117990;27;20019;-59
2022/04/08 05:57:47;;;;;;;41.70;5.07;;;12.50;90.80;;;;;;5108206;27;20050;-58
2022/04/08 06:00:13;;;;;;;34.35;4.00;;;12.50;90.70;;;;;;5098807;27;20077;-58
2022/04/08 06:02:45;;;;;;;41.55;4.95;;;12.50;90.70;;;;;;5097084;27;20015;-58
2022/04/08 06:05:11;;;;;;;31.38;4.53;;;12.50;90.80;;;;;;5102885;27;20027;-58
2022/04/08 06:07:47;;;;;;;28.73;4.70;;;12.50;90.80;;;;;;5123823;27;20019;-59
2022/04/08 06:10:13;;;;;;;25.88;3.90;;;12.50;90.70;;;;;;5089329;27;20471;-60
2022/04/08 06:12:38;;;;;;;26.42;3.25;;;12.50;90.70;;;;;;5106339;27;20038;-61
2022/04/08 06:15:05;;;;;;;34.42;4.63;;;12.60;90.70;;;;;;5117387;27;20471;-60
2022/04/08 06:17:37;;;;;;;26.38;3.72;;;12.50;90.60;;;;;;5114837;27;20054;-61
2022/04/08 06:20:07;;;;;;;15.73;2.85;;;12.60;90.60;;;;;;5097113;27;20446;-58
2022/04/08 06:22:32;;;;;;;18.08;2.95;;;12.50;90.60;;;;;;5100712;28;20043;-59
2022/04/08 06:24:58;;;;;;;25.80;3.20;;;12.50;90.50;;;;;;5081694;27;20393;-59
2022/04/08 06:27:23;;;;;;;14.27;2.67;;;12.60;90.50;;;;;;5111787;27;20477;-58
2022/04/08 06:29:49;;;;;;;20.88;2.60;;;12.50;90.50;;;;;;5089001;28;20051;-61
2022/04/08 06:32:14;;;;;;;18.85;2.97;;;12.50;90.40;;;;;;5111068;27;20627;-59
2022/04/08 06:34:40;;;;;;;22.88;2.65;;;12.60;90.50;;;;;;5106216;27;20107;-59
2022/04/08 06:37:08;;;;;;;18.88;3.33;;;12.50;90.50;;;;;;5105424;27;20047;-58
2022/04/08 06:39:33;;;;;;;16.80;2.83;;;12.60;90.50;;;;;;5101916;27;20436;-59
2022/04/08 06:41:59;;;;;;;15.63;2.20;;;12.50;90.50;;;;;;5107126;27;20054;-60
2022/04/08 06:44:24;;;;;;;19.23;2.38;;;12.50;90.50;;;;;;5091698;28;20043;-60
2022/04/08 06:46:50;;;;;;;19.00;2.90;;;12.50;90.50;;;;;;5105224;27;20058;-60
2022/04/08 06:49:19;;;;;;;21.48;2.65;;;12.50;90.50;;;;;;5111294;27;20035;-59
2022/04/08 06:51:45;;;;;;;14.90;2.55;;;12.40;90.40;;;;;;5082587;28;20191;-58
2022/04/08 06:54:10;;;;;;;19.45;3.10;;;12.60;90.50;;;;;;5108657;27;20211;-60
2022/04/08 06:56:36;;;;;;;26.73;3.33;;;12.60;90.50;;;;;;5101050;28;20037;-58
2022/04/08 06:59:01;;;;;;;20.75;2.83;;;12.60;90.60;;;;;;5112782;27;20076;-59
2022/04/08 07:01:27;;;;;;;26.02;2.88;;;12.60;90.60;;;;;;5111668;27;20035;-60
2022/04/08 07:03:52;;;;;;;32.42;3.53;;;12.60;90.70;;;;;;5075325;28;20359;-60
2022/04/08 07:06:18;;;;;;;14.13;2.65;;;12.60;90.60;;;;;;5065760;28;20383;-59
2022/04/08 07:08:43;;;;;;;17.17;2.85;;;12.60;90.70;;;;;;5088618;27;20517;-60
2022/04/08 07:11:09;;;;;;;13.65;2.60;;;12.60;90.70;;;;;;5091853;27;20019;-60
2022/04/08 07:13:37;;;;;;;16.85;2.83;;;12.70;90.60;;;;;;5098834;27;20039;-58
2022/04/08 07:16:03;;;;;;;14.05;2.47;;;12.70;90.60;;;;;;5097637;28;20351;-59
2022/04/08 07:18:28;;;;;;;22.38;2.90;;;12.70;90.50;;;;;;5096993;27;20042;-59
2022/04/08 07:20:54;;;;;;;16.10;2.75;;;12.70;90.60;;;;;;5110388;27;20073;-59
2022/04/08 07:23:19;;;;;;;8.90;1.65;;;12.70;90.50;;;;;;5101715;27;20028;-60
2022/04/08 07:25:45;;;;;;;13.55;2.58;;;12.70;90.50;;;;;;5100170;28;20462;-59
2022/04/08 07:28:10;;;;;;;16.40;3.30;;;12.80;90.40;;;;;;5055499;28;20464;-59
2022/04/08 07:30:36;;;;;;;62.22;5.57;;;12.80;90.40;;;;;;5106349;28;20170;-61
2022/04/08 07:33:03;;;;;;;30.92;4.00;;;12.80;90.50;;;;;;5071396;28;20070;-59
2022/04/08 07:35:30;;;;;;;11.65;2.60;;;12.80;90.60;;;;;;5100633;28;20375;-60
2022/04/08 07:37:56;;;;;;;13.25;2.83;;;12.80;90.50;;;;;;5103344;28;20027;-60
2022/04/08 07:40:22;;;;;;;20.52;2.67;;;12.80;90.50;;;;;;5090605;28;20463;-59
2022/04/08 07:42:48;;;;;;;21.27;3.05;;;12.80;90.40;;;;;;5094323;28;20040;-60
2022/04/08 07:45:13;;;;;;;28.35;3.95;;;12.80;90.50;;;;;;5082665;28;20715;-60
2022/04/08 07:47:39;;;;;;;22.67;3.45;;;12.90;90.50;;;;;;5065932;28;20026;-58
2022/04/08 07:50:10;;;;;;;20.77;3.53;;;12.90;90.50;;;;;;5067789;28;20021;-59
2022/04/08 07:52:35;;;;;;;18.02;3.10;;;12.90;90.50;;;;;;5054081;28;20469;-60
2022/04/08 07:55:01;;;;;;;32.03;3.58;;;12.90;90.50;;;;;;5090818;28;20225;-58
2022/04/08 07:57:26;;;;;;;17.60;3.20;;;12.90;90.40;;;;;;5082617;28;20108;-60
2022/04/08 07:59:52;;;;;;;24.15;4.20;;;13.00;90.60;;;;;;5095295;28;20031;-59
2022/04/08 08:02:18;;;;;;;40.20;4.32;;;13.00;90.60;;;;;;5093644;28;20030;-60
2022/04/08 08:04:44;;;;;;;37.72;4.70;;;13.10;90.60;;;;;;5078278;28;20031;-59
2022/04/08 08:07:10;;;;;;;20.08;3.15;;;13.10;90.70;;;;;;5078426;28;20114;-60
2022/04/08 08:09:35;;;;;;;41.08;4.95;;;13.10;90.60;;;;;;5081114;28;20098;-60
2022/04/08 08:12:01;;;;;;;31.27;4.28;;;13.10;90.90;;;;;;5092477;28;20105;-60
2022/04/08 08:14:27;;;;;;;42.08;5.45;;;13.20;90.70;;;;;;5092256;27;20418;-58
2022/04/08 08:16:52;;;;;;;32.22;4.38;;;13.20;90.70;;;;;;5078138;27;20315;-60
2022/04/08 08:19:18;;;;;;;32.33;4.90;;;13.20;90.70;;;;;;5093278;27;20069;-59
2022/04/08 08:21:44;;;;;;;38.05;4.93;;;13.20;90.70;;;;;;5077816;28;20130;-60
2022/04/08 08:24:09;;;;;;;43.85;5.03;;;13.30;90.80;;;;;;5068728;28;20058;-59
2022/04/08 08:26:35;;;;;;;27.33;4.85;;;13.30;90.70;;;;;;5089683;27;20927;-58
2022/04/08 08:29:00;;;;;;;37.85;5.57;;;13.30;90.80;;;;;;5066796;28;20452;-60
2022/04/08 08:31:26;;;;;;;49.33;5.30;;;13.40;90.80;;;;;;5061320;28;20506;-59
2022/04/08 08:33:51;;;;;;;32.50;5.90;;;13.60;90.80;;;;;;5079050;28;20080;-59
2022/04/08 08:36:17;;;;;;;53.10;6.05;;;13.50;90.90;;;;;;5067289;28;20019;-60
2022/04/08 08:38:43;;;;;;;47.92;6.80;;;13.50;91.30;;;;;;5081217;28;20806;-58
2022/04/08 08:41:09;;;;;;;40.85;6.30;;;13.50;91.10;;;;;;5101697;27;20103;-59
2022/04/08 08:43:35;;;;;;;70.20;8.30;;;13.60;91.00;;;;;;5095450;27;20046;-58
2022/04/08 08:46:02;;;;;;;68.55;7.80;;;13.60;91.00;;;;;;5085381;28;20108;-59
2022/04/08 08:48:30;;;;;;;74.60;10.23;;;13.70;91.00;;;;;;5081821;28;20058;-59
2022/04/08 08:50:55;;;;;;;78.65;10.45;;;13.70;91.00;;;;;;5077898;28;20306;-58
2022/04/08 08:53:21;;;;;;;84.38;10.45;;;13.80;91.10;;;;;;5086967;27;20119;-60
2022/04/08 08:55:50;;;;;;;72.93;9.27;;;13.80;91.10;;;;;;5070404;28;20024;-59
2022/04/08 08:58:16;;;;;;;91.03;9.98;;;13.90;91.20;;;;;;5073920;28;20351;-59
2022/04/08 09:00:41;;;;;;;58.50;8.82;;;13.90;91.10;;;;;;5077880;28;20119;-58
2022/04/08 09:03:09;;;;;;;74.57;9.13;;;13.90;91.10;;;;;;5074628;28;20084;-59
2022/04/08 09:05:45;;;;;;;75.10;9.63;;;14.00;91.10;;;;;;5074675;28;20398;-59
2022/04/08 09:08:11;;;;;;;78.18;10.38;;;14.00;91.20;;;;;;5097807;27;20019;-60
2022/04/08 09:10:39;;;;;;;68.63;9.57;;;14.10;91.30;;;;;;5098347;27;20028;-59
2022/04/08 09:13:06;;;;;;;74.22;8.98;;;14.10;91.30;;;;;;5094497;27;20030;-59
2022/04/08 09:15:34;;;;;;;106.50;10.82;;;14.20;91.30;;;;;;5069353;28;20035;-60
2022/04/08 09:18:06;;;;;;;71.40;10.88;;;14.20;91.50;;;;;;5082118;28;20130;-59
2022/04/08 09:20:39;;;;;;;89.13;10.48;;;14.30;91.50;;;;;;5097006;27;20046;-60
2022/04/08 09:23:05;;;;;;;67.10;9.85;;;14.30;91.30;;;;;;5098609;27;20035;-59
2022/04/08 09:25:31;;;;;;;93.40;11.88;;;14.30;91.10;;;;;;5096625;28;20032;-59
2022/04/08 09:27:58;;;;;;;132.98;15.02;;;14.40;91.20;;;;;;5085053;27;20063;-60
2022/04/08 09:30:29;;;;;;;279.52;27.05;;;14.40;91.30;;;;;;5095791;27;20045;-60
2022/04/08 09:32:55;;;;;;;123.80;14.90;;;14.40;91.40;;;;;;5036376;28;20482;-59
2022/04/08 09:35:20;;;;;;;161.50;17.80;;;14.50;91.30;;;;;;5095535;27;20034;-59
2022/04/08 09:38:19;;;;;;;122.68;16.05;;;14.50;91.30;;;;;;5077430;28;20572;-59
2022/04/08 09:40:44;;;;;;;133.52;15.05;;;14.60;91.20;;;;;;5080208;28;20036;-58
2022/04/08 09:43:10;;;;;;;117.68;14.60;;;14.60;91.10;;;;;;5059620;28;21273;-60
2022/04/08 09:45:38;;;;;;;143.77;16.25;;;14.70;91.10;;;;;;5085666;27;20431;-59
2022/04/08 09:48:05;;;;;;;129.25;15.98;;;14.70;91.00;;;;;;5079496;27;20085;-59
2022/04/08 09:50:31;;;;;;;136.45;16.00;;;14.70;91.10;;;;;;5098675;27;20111;-59
2022/04/08 09:52:56;;;;;;;106.47;12.90;;;14.70;91.20;;;;;;5064556;28;20058;-59
2022/04/08 09:55:23;;;;;;;143.60;15.82;;;14.70;91.10;;;;;;5061129;28;20480;-59
2022/04/08 09:57:53;;;;;;;113.88;13.18;;;14.70;91.20;;;;;;5078937;28;20027;-60
2022/04/08 10:00:19;;;;;;;89.65;11.68;;;14.80;91.10;;;;;;5073718;28;20040;-59
2022/04/08 10:02:45;;;;;;;83.80;12.13;;;14.80;90.90;;;;;;5077224;27;20096;-60
2022/04/08 10:05:11;;;;;;;93.07;12.45;;;14.80;90.90;;;;;;5099433;27;20358;-61
2022/04/08 10:07:36;;;;;;;118.10;12.68;;;14.80;90.90;;;;;;5075437;28;20028;-58
2022/04/08 10:10:16;;;;;;;94.30;13.23;;;14.90;91.00;;;;;;5088632;27;20386;-60
2022/04/08 10:13:03;;;;;;;114.78;12.13;;;14.90;91.10;;;;;;5074716;28;20035;-59
2022/04/08 10:15:35;;;;;;;120.25;13.70;;;14.90;91.00;;;;;;5093366;27;20028;-59
2022/04/08 10:18:04;;;;;;;115.55;13.90;;;15.00;91.00;;;;;;5093012;28;20119;-58
2022/04/08 10:20:30;;;;;;;116.40;13.18;;;15.00;91.20;;;;;;5075316;28;20515;-59
2022/04/08 10:23:11;;;;;;;108.25;13.43;;;15.10;90.90;;;;;;5062734;27;20047;-60
2022/04/08 10:25:42;;;;;;;93.70;14.88;;;15.10;90.90;;;;;;5077645;28;20080;-58
2022/04/08 10:28:08;;;;;;;130.30;15.50;;;15.10;91.00;;;;;;5093410;28;20923;-59
2022/04/08 10:30:36;;;;;;;151.07;16.45;;;15.10;90.90;;;;;;5057556;28;20058;-59
2022/04/08 10:33:03;;;;;;;136.25;16.35;;;15.20;90.90;;;;;;5076704;28;20081;-61
2022/04/08 10:35:28;;;;;;;112.45;15.60;;;15.10;90.80;;;;;;5075322;28;20058;-62
2022/04/08 10:38:12;;;;;;;113.72;14.93;;;15.20;90.80;;;;;;5053814;28;20123;-60
2022/04/08 10:40:39;;;;;;;130.70;15.40;;;15.30;90.80;;;;;;5069951;28;20399;-61
2022/04/08 10:43:09;;;;;;;107.05;14.40;;;15.30;90.80;;;;;;5077759;28;20026;-61
2022/04/08 10:45:35;;;;;;;89.38;13.35;;;15.30;90.70;;;;;;5069341;28;20031;-61
2022/04/08 10:48:10;;;;;;;93.45;11.90;;;15.30;90.60;;;;;;5070932;28;20027;-60
2022/04/08 10:50:36;;;;;;;89.83;12.67;;;15.40;90.50;;;;;;5071839;28;20659;-60
2022/04/08 10:53:18;;;;;;;78.75;11.95;;;15.40;90.50;;;;;;5077536;27;20020;-61
2022/04/08 10:55:48;;;;;;;84.00;11.98;;;15.40;90.40;;;;;;5094698;27;20433;-60
2022/04/08 10:58:15;;;;;;;101.57;13.35;;;15.40;90.40;;;;;;5079096;28;20038;-61
2022/04/08 11:00:40;;;;;;;104.45;12.45;;;15.40;90.30;;;;;;5067305;28;20545;-60
2022/04/08 11:03:07;;;;;;;119.30;13.88;;;15.40;90.40;;;;;;5072898;28;20035;-61
2022/04/08 11:05:38;;;;;;;94.22;11.77;;;15.50;90.30;;;;;;5075986;28;20040;-61
2022/04/08 11:08:04;;;;;;;83.93;11.30;;;15.40;90.20;;;;;;5070813;28;20039;-61
2022/04/08 11:10:31;;;;;;;75.60;10.60;;;15.50;90.20;;;;;;5071899;28;20032;-61
2022/04/08 11:12:57;;;;;;;83.45;10.45;;;15.50;90.30;;;;;;5089498;28;20151;-61
2022/04/08 11:15:23;;;;;;;73.70;10.43;;;15.50;90.20;;;;;;5074740;28;20049;-60
2022/04/08 11:17:49;;;;;;;64.55;9.73;;;15.50;90.20;;;;;;5058748;28;20090;-61
2022/04/08 11:20:17;;;;;;;101.13;10.23;;;15.60;90.00;;;;;;5069038;27;20518;-60
2022/04/08 11:22:47;;;;;;;66.32;10.23;;;15.60;90.00;;;;;;5071779;28;20061;-59
2022/04/08 11:25:23;;;;;;;75.53;9.60;;;15.60;90.00;;;;;;5068623;28;20482;-62
2022/04/08 11:27:58;;;;;;;76.28;10.93;;;15.60;89.80;;;;;;5068568;28;20508;-59
2022/04/08 11:30:24;;;;;;;86.70;9.27;;;15.60;89.70;;;;;;5083393;28;20052;-59
2022/04/08 11:32:50;;;;;;;64.43;8.32;;;15.60;89.50;;;;;;5056726;28;20263;-59
2022/04/08 11:35:15;;;;;;;75.38;10.02;;;15.60;89.30;;;;;;5069474;28;20035;-61
2022/04/08 11:37:41;;;;;;;71.60;8.88;;;15.70;89.30;;;;;;5063150;28;20093;-61
2022/04/08 11:40:07;;;;;;;64.35;8.70;;;15.70;89.00;;;;;;5092112;28;20115;-62
2022/04/08 11:42:33;;;;;;;66.03;8.60;;;15.70;88.90;;;;;;5071807;28;20047;-61
2022/04/08 11:44:59;;;;;;;48.60;8.63;;;15.70;88.60;;;;;;5074260;28;20031;-61
2022/04/08 11:47:31;;;;;;;71.40;8.75;;;15.70;88.40;;;;;;5054760;28;20027;-62
2022/04/08 11:50:02;;;;;;;87.35;9.93;;;15.80;88.30;;;;;;5059127;28;20039;-61
2022/04/08 11:52:27;;;;;;;53.40;8.00;;;15.80;88.30;;;;;;5063835;28;20036;-62
2022/04/08 11:54:56;;;;;;;47.78;7.22;;;15.80;88.20;;;;;;5056120;28;20036;-64
2022/04/08 11:57:32;;;;;;;72.95;9.20;;;15.80;87.90;;;;;;5069282;28;20508;-62
2022/04/08 11:59:58;;;;;;;39.30;6.13;;;15.80;87.60;;;;;;5067839;28;20512;-61
2022/04/08 12:02:23;;;;;;;66.97;8.65;;;15.80;87.20;;;;;;5073318;28;20110;-60
2022/04/08 12:04:52;;;;;;;71.00;8.65;;;15.80;86.70;;;;;;5098953;28;20114;-60
2022/04/08 12:07:25;;;;;;;63.97;7.97;;;15.80;86.60;;;;;;5080355;28;20097;-61
2022/04/08 12:09:51;;;;;;;60.47;8.27;;;15.80;86.70;;;;;;5095491;28;20019;-61
2022/04/08 12:12:25;;;;;;;79.13;7.70;;;15.90;86.80;;;;;;5059155;28;20409;-61
2022/04/08 12:14:50;;;;;;;54.10;5.90;;;15.90;86.30;;;;;;5059356;28;20046;-61
2022/04/08 12:17:16;;;;;;;70.38;7.35;;;15.90;85.50;;;;;;5077266;28;20453;-59
2022/04/08 12:19:42;;;;;;;60.35;7.82;;;15.90;85.20;;;;;;5069197;28;20058;-61
2022/04/08 12:22:13;;;;;;;53.58;6.38;;;15.90;85.50;;;;;;5075291;28;20046;-58
2022/04/08 12:24:42;;;;;;;64.80;7.82;;;16.00;85.50;;;;;;5070034;28;20467;-59
2022/04/08 12:27:17;;;;;;;69.22;9.30;;;16.00;85.30;;;;;;5068898;28;20058;-59
2022/04/08 12:29:43;;;;;;;61.43;8.30;;;16.00;85.50;;;;;;5071151;28;20491;-59
2022/04/08 12:32:13;;;;;;;50.90;6.30;;;16.00;85.10;;;;;;5104013;28;20553;-58